sensor_id;sensor_type;location;lat;lon;timestamp;temperature;humidity
34768;DHT22;21755;43.608;1.236;2024-03-07T00:02:20;7.60;99.90
34768;DHT22;21755;43.608;1.236;2024-03-07T00:04:46;7.60;99.90
34768;DHT22;21755;43.608;1.236;2024-03-07T00:07:12;7.60;99.90
34768;DHT22;21755;43.608;1.236;2024-03-07T00:09:38;7.50;99.90
34768;DHT22;21755;43.608;1.236;2024-03-07T00:12:05;7.50;99.90
34768;DHT22;21755;43.608;1.236;2024-03-07T00:14:32;7.50;99.90
34768;DHT22;21755;43.608;1.236;2024-03-07T00:17:01;7.50;99.90
34768;DHT22;21755;43.608;1.236;2024-03-07T00:19:28;7.40;99.90
34768;DHT22;21755;43.608;1.236;2024-03-07T00:21:57;7.40;99.90
34768;DHT22;21755;43.608;1.236;2024-03-07T00:24:24;7.40;99.90
34768;DHT22;21755;43.608;1.236;2024-03-07T00:26:50;7.40;99.90
34768;DHT22;21755;43.608;1.236;2024-03-07T00:29:17;7.40;99.90
34768;DHT22;21755;43.608;1.236;2024-03-07T00:31:44;7.40;99.90
34768;DHT22;21755;43.608;1.236;2024-03-07T00:34:13;7.30;99.90
34768;DHT22;21755;43.608;1.236;2024-03-07T00:36:45;7.30;99.90
34768;DHT22;21755;43.608;1.236;2024-03-07T00:39:12;7.30;99.90
34768;DHT22;21755;43.608;1.236;2024-03-07T00:41:41;7.20;99.90
34768;DHT22;21755;43.608;1.236;2024-03-07T00:44:08;7.20;99.90
34768;DHT22;21755;43.608;1.236;2024-03-07T00:46:37;7.20;99.90
34768;DHT22;21755;43.608;1.236;2024-03-07T00:49:04;7.10;99.90
34768;DHT22;21755;43.608;1.236;2024-03-07T00:51:30;7.20;99.90
34768;DHT22;21755;43.608;1.236;2024-03-07T00:53:56;7.20;99.90
34768;DHT22;21755;43.608;1.236;2024-03-07T00:56:23;7.10;99.90
34768;DHT22;21755;43.608;1.236;2024-03-07T00:58:52;7.10;99.90
34768;DHT22;21755;43.608;1.236;2024-03-07T01:01:18;7.10;99.90
34768;DHT22;21755;43.608;1.236;2024-03-07T01:03:45;7.10;99.90
34768;DHT22;21755;43.608;1.236;2024-03-07T01:06:11;7.00;99.90
34768;DHT22;21755;43.608;1.236;2024-03-07T01:08:38;7.00;99.90
34768;DHT22;21755;43.608;1.236;2024-03-07T01:11:05;7.00;99.90
34768;DHT22;21755;43.608;1.236;2024-03-07T01:13:40;7.00;99.90
34768;DHT22;21755;43.608;1.236;2024-03-07T01:16:07;7.00;99.90
34768;DHT22;21755;43.608;1.236;2024-03-07T01:18:34;7.00;99.90
34768;DHT22;21755;43.608;1.236;2024-03-07T01:23:30;6.90;99.90
34768;DHT22;21755;43.608;1.236;2024-03-07T01:25:57;6.90;99.90
34768;DHT22;21755;43.608;1.236;2024-03-07T01:28:27;6.90;99.90
34768;DHT22;21755;43.608;1.236;2024-03-07T01:30:57;6.80;99.90
34768;DHT22;21755;43.608;1.236;2024-03-07T01:33:24;6.80;99.90
34768;DHT22;21755;43.608;1.236;2024-03-07T01:35:50;6.80;99.90
34768;DHT22;21755;43.608;1.236;2024-03-07T01:38:16;6.80;99.90
34768;DHT22;21755;43.608;1.236;2024-03-07T01:40:43;6.70;99.90
34768;DHT22;21755;43.608;1.236;2024-03-07T01:43:09;6.70;99.90
34768;DHT22;21755;43.608;1.236;2024-03-07T01:45:36;6.70;99.90
34768;DHT22;21755;43.608;1.236;2024-03-07T01:48:07;6.70;99.90
34768;DHT22;21755;43.608;1.236;2024-03-07T01:50:35;6.60;99.90
34768;DHT22;21755;43.608;1.236;2024-03-07T01:53:07;6.60;99.90
34768;DHT22;21755;43.608;1.236;2024-03-07T01:55:35;6.60;99.90
34768;DHT22;21755;43.608;1.236;2024-03-07T01:58:03;6.60;99.90
34768;DHT22;21755;43.608;1.236;2024-03-07T02:00:30;6.60;99.90
34768;DHT22;21755;43.608;1.236;2024-03-07T02:02:56;6.60;99.90
34768;DHT22;21755;43.608;1.236;2024-03-07T02:05:23;6.50;99.90
34768;DHT22;21755;43.608;1.236;2024-03-07T02:07:50;6.50;99.90
34768;DHT22;21755;43.608;1.236;2024-03-07T02:10:16;6.50;99.90
34768;DHT22;21755;43.608;1.236;2024-03-07T02:12:43;6.50;99.90
34768;DHT22;21755;43.608;1.236;2024-03-07T02:15:10;6.50;99.90
34768;DHT22;21755;43.608;1.236;2024-03-07T02:17:37;6.40;99.90
34768;DHT22;21755;43.608;1.236;2024-03-07T02:20:04;6.50;99.90
34768;DHT22;21755;43.608;1.236;2024-03-07T02:22:33;6.40;99.90
34768;DHT22;21755;43.608;1.236;2024-03-07T02:24:59;6.40;99.90
34768;DHT22;21755;43.608;1.236;2024-03-07T02:27:24;6.30;99.90
34768;DHT22;21755;43.608;1.236;2024-03-07T02:29:50;6.30;99.90
34768;DHT22;21755;43.608;1.236;2024-03-07T02:32:16;6.30;99.90
34768;DHT22;21755;43.608;1.236;2024-03-07T02:34:43;6.30;99.90
34768;DHT22;21755;43.608;1.236;2024-03-07T02:37:09;6.30;99.90
34768;DHT22;21755;43.608;1.236;2024-03-07T02:39:36;6.30;99.90
34768;DHT22;21755;43.608;1.236;2024-03-07T02:42:02;6.30;99.90
34768;DHT22;21755;43.608;1.236;2024-03-07T02:44:28;6.20;99.90
34768;DHT22;21755;43.608;1.236;2024-03-07T02:46:54;6.20;99.90
34768;DHT22;21755;43.608;1.236;2024-03-07T02:49:20;6.20;99.90
34768;DHT22;21755;43.608;1.236;2024-03-07T02:51:47;6.20;99.90
34768;DHT22;21755;43.608;1.236;2024-03-07T02:54:13;6.20;99.90
34768;DHT22;21755;43.608;1.236;2024-03-07T02:56:39;6.20;99.90
34768;DHT22;21755;43.608;1.236;2024-03-07T02:59:05;6.20;99.90
34768;DHT22;21755;43.608;1.236;2024-03-07T03:01:32;6.20;99.90
34768;DHT22;21755;43.608;1.236;2024-03-07T03:03:58;6.10;99.90
34768;DHT22;21755;43.608;1.236;2024-03-07T03:06:24;6.10;99.90
34768;DHT22;21755;43.608;1.236;2024-03-07T03:08:50;6.10;99.90
34768;DHT22;21755;43.608;1.236;2024-03-07T03:11:16;6.00;99.90
34768;DHT22;21755;43.608;1.236;2024-03-07T03:13:42;6.00;99.90
34768;DHT22;21755;43.608;1.236;2024-03-07T03:16:09;6.00;99.90
34768;DHT22;21755;43.608;1.236;2024-03-07T03:18:38;6.00;99.90
34768;DHT22;21755;43.608;1.236;2024-03-07T03:21:04;6.00;99.90
34768;DHT22;21755;43.608;1.236;2024-03-07T03:23:30;6.00;99.90
34768;DHT22;21755;43.608;1.236;2024-03-07T03:25:56;6.00;99.90
34768;DHT22;21755;43.608;1.236;2024-03-07T03:28:23;6.00;99.90
34768;DHT22;21755;43.608;1.236;2024-03-07T03:30:49;6.00;99.90
34768;DHT22;21755;43.608;1.236;2024-03-07T03:33:16;6.00;99.90
34768;DHT22;21755;43.608;1.236;2024-03-07T03:35:43;6.00;1.00
34768;DHT22;21755;43.608;1.236;2024-03-07T03:38:10;6.00;1.00
34768;DHT22;21755;43.608;1.236;2024-03-07T03:40:36;6.00;1.00
34768;DHT22;21755;43.608;1.236;2024-03-07T03:43:02;6.00;1.00
34768;DHT22;21755;43.608;1.236;2024-03-07T03:45:29;6.00;1.00
34768;DHT22;21755;43.608;1.236;2024-03-07T03:47:56;6.00;1.00
34768;DHT22;21755;43.608;1.236;2024-03-07T03:50:22;6.00;1.00
34768;DHT22;21755;43.608;1.236;2024-03-07T03:52:51;6.00;1.00
34768;DHT22;21755;43.608;1.236;2024-03-07T03:55:17;6.00;1.00
34768;DHT22;21755;43.608;1.236;2024-03-07T03:57:44;6.00;1.00
34768;DHT22;21755;43.608;1.236;2024-03-07T04:00:12;6.00;1.00
34768;DHT22;21755;43.608;1.236;2024-03-07T04:02:43;6.10;1.00
34768;DHT22;21755;43.608;1.236;2024-03-07T04:05:12;6.10;1.00
34768;DHT22;21755;43.608;1.236;2024-03-07T04:07:40;6.10;1.00
34768;DHT22;21755;43.608;1.236;2024-03-07T04:10:08;6.10;1.00
34768;DHT22;21755;43.608;1.236;2024-03-07T04:12:39;6.10;1.00
34768;DHT22;21755;43.608;1.236;2024-03-07T04:15:07;6.10;1.00
34768;DHT22;21755;43.608;1.236;2024-03-07T04:17:34;6.10;1.00
34768;DHT22;21755;43.608;1.236;2024-03-07T04:20:01;6.10;1.00
34768;DHT22;21755;43.608;1.236;2024-03-07T04:22:34;6.10;1.00
34768;DHT22;21755;43.608;1.236;2024-03-07T04:25:03;6.10;1.00
34768;DHT22;21755;43.608;1.236;2024-03-07T04:27:29;6.10;1.00
34768;DHT22;21755;43.608;1.236;2024-03-07T04:29:56;6.10;1.00
34768;DHT22;21755;43.608;1.236;2024-03-07T04:32:22;6.10;1.00
34768;DHT22;21755;43.608;1.236;2024-03-07T04:34:48;6.10;1.00
34768;DHT22;21755;43.608;1.236;2024-03-07T04:37:14;6.10;1.00
34768;DHT22;21755;43.608;1.236;2024-03-07T04:39:40;6.10;1.00
34768;DHT22;21755;43.608;1.236;2024-03-07T04:42:07;6.10;1.00
34768;DHT22;21755;43.608;1.236;2024-03-07T04:44:35;6.10;1.00
34768;DHT22;21755;43.608;1.236;2024-03-07T04:47:05;6.10;1.00
34768;DHT22;21755;43.608;1.236;2024-03-07T04:49:32;6.10;1.00
34768;DHT22;21755;43.608;1.236;2024-03-07T04:52:00;6.10;1.00
34768;DHT22;21755;43.608;1.236;2024-03-07T04:54:28;6.10;1.00
34768;DHT22;21755;43.608;1.236;2024-03-07T04:56:54;6.10;1.00
34768;DHT22;21755;43.608;1.236;2024-03-07T04:59:21;6.10;1.00
34768;DHT22;21755;43.608;1.236;2024-03-07T05:01:49;6.10;1.00
34768;DHT22;21755;43.608;1.236;2024-03-07T05:04:18;6.10;1.00
34768;DHT22;21755;43.608;1.236;2024-03-07T05:06:44;6.10;1.00
34768;DHT22;21755;43.608;1.236;2024-03-07T05:09:13;6.10;1.00
34768;DHT22;21755;43.608;1.236;2024-03-07T05:11:49;6.10;1.00
34768;DHT22;21755;43.608;1.236;2024-03-07T05:14:17;6.10;1.00
34768;DHT22;21755;43.608;1.236;2024-03-07T05:16:43;6.10;1.00
34768;DHT22;21755;43.608;1.236;2024-03-07T05:19:09;6.10;1.00
34768;DHT22;21755;43.608;1.236;2024-03-07T05:21:35;6.10;1.00
34768;DHT22;21755;43.608;1.236;2024-03-07T05:24:07;6.10;1.00
34768;DHT22;21755;43.608;1.236;2024-03-07T05:26:36;6.10;1.00
34768;DHT22;21755;43.608;1.236;2024-03-07T05:29:08;6.20;1.00
34768;DHT22;21755;43.608;1.236;2024-03-07T05:31:36;6.20;1.00
34768;DHT22;21755;43.608;1.236;2024-03-07T05:34:05;6.20;1.00
34768;DHT22;21755;43.608;1.236;2024-03-07T05:36:35;6.20;1.00
34768;DHT22;21755;43.608;1.236;2024-03-07T05:39:01;6.20;1.00
34768;DHT22;21755;43.608;1.236;2024-03-07T05:41:35;6.30;1.00
34768;DHT22;21755;43.608;1.236;2024-03-07T05:44:01;6.30;1.00
34768;DHT22;21755;43.608;1.236;2024-03-07T05:46:27;6.40;1.00
34768;DHT22;21755;43.608;1.236;2024-03-07T05:48:53;6.40;1.00
34768;DHT22;21755;43.608;1.236;2024-03-07T05:51:22;6.40;1.00
34768;DHT22;21755;43.608;1.236;2024-03-07T05:53:49;6.50;1.00
34768;DHT22;21755;43.608;1.236;2024-03-07T05:56:15;6.50;1.00
34768;DHT22;21755;43.608;1.236;2024-03-07T05:58:42;6.50;1.00
34768;DHT22;21755;43.608;1.236;2024-03-07T06:01:07;6.50;1.00
34768;DHT22;21755;43.608;1.236;2024-03-07T06:03:34;6.50;1.00
34768;DHT22;21755;43.608;1.236;2024-03-07T06:06:00;6.50;1.00
34768;DHT22;21755;43.608;1.236;2024-03-07T06:08:26;6.60;1.00
34768;DHT22;21755;43.608;1.236;2024-03-07T06:10:52;6.60;1.00
34768;DHT22;21755;43.608;1.236;2024-03-07T06:13:19;6.60;1.00
34768;DHT22;21755;43.608;1.236;2024-03-07T06:15:46;6.60;1.00
34768;DHT22;21755;43.608;1.236;2024-03-07T06:18:13;6.70;1.00
34768;DHT22;21755;43.608;1.236;2024-03-07T06:20:40;6.60;1.00
34768;DHT22;21755;43.608;1.236;2024-03-07T06:23:06;6.50;1.00
34768;DHT22;21755;43.608;1.236;2024-03-07T06:25:33;6.50;1.00
34768;DHT22;21755;43.608;1.236;2024-03-07T06:28:03;6.50;1.00
34768;DHT22;21755;43.608;1.236;2024-03-07T06:30:39;6.40;1.00
34768;DHT22;21755;43.608;1.236;2024-03-07T06:33:09;6.40;1.00
34768;DHT22;21755;43.608;1.236;2024-03-07T06:35:39;6.40;1.00
34768;DHT22;21755;43.608;1.236;2024-03-07T06:38:09;6.40;1.00
34768;DHT22;21755;43.608;1.236;2024-03-07T06:40:39;6.40;1.00
34768;DHT22;21755;43.608;1.236;2024-03-07T06:43:14;6.40;1.00
34768;DHT22;21755;43.608;1.236;2024-03-07T06:45:40;6.40;1.00
34768;DHT22;21755;43.608;1.236;2024-03-07T06:48:08;6.40;1.00
34768;DHT22;21755;43.608;1.236;2024-03-07T06:50:34;6.40;1.00
34768;DHT22;21755;43.608;1.236;2024-03-07T06:53:01;6.40;1.00
34768;DHT22;21755;43.608;1.236;2024-03-07T06:55:27;6.40;1.00
34768;DHT22;21755;43.608;1.236;2024-03-07T06:57:53;6.50;99.90
34768;DHT22;21755;43.608;1.236;2024-03-07T07:00:20;6.50;99.90
34768;DHT22;21755;43.608;1.236;2024-03-07T07:02:47;6.50;99.90
34768;DHT22;21755;43.608;1.236;2024-03-07T07:05:14;6.60;99.90
34768;DHT22;21755;43.608;1.236;2024-03-07T07:07:50;6.60;99.90
34768;DHT22;21755;43.608;1.236;2024-03-07T07:10:18;6.60;99.90
34768;DHT22;21755;43.608;1.236;2024-03-07T07:12:45;6.60;99.90
34768;DHT22;21755;43.608;1.236;2024-03-07T07:15:12;6.60;99.90
34768;DHT22;21755;43.608;1.236;2024-03-07T07:17:39;6.70;99.90
34768;DHT22;21755;43.608;1.236;2024-03-07T07:20:05;6.70;99.90
34768;DHT22;21755;43.608;1.236;2024-03-07T07:22:38;6.80;99.90
34768;DHT22;21755;43.608;1.236;2024-03-07T07:25:05;6.90;99.90
34768;DHT22;21755;43.608;1.236;2024-03-07T07:27:32;7.00;99.90
34768;DHT22;21755;43.608;1.236;2024-03-07T07:29:58;7.10;99.90
34768;DHT22;21755;43.608;1.236;2024-03-07T07:32:25;7.20;99.90
34768;DHT22;21755;43.608;1.236;2024-03-07T07:34:51;7.30;99.90
34768;DHT22;21755;43.608;1.236;2024-03-07T07:37:17;7.30;99.90
34768;DHT22;21755;43.608;1.236;2024-03-07T07:39:43;7.40;99.90
34768;DHT22;21755;43.608;1.236;2024-03-07T07:42:09;7.50;97.30
34768;DHT22;21755;43.608;1.236;2024-03-07T07:44:35;7.60;32.10
34768;DHT22;21755;43.608;1.236;2024-03-07T07:47:01;7.70;5.60
34768;DHT22;21755;43.608;1.236;2024-03-07T07:49:27;7.80;4.40
34768;DHT22;21755;43.608;1.236;2024-03-07T07:51:54;7.90;1.00
34768;DHT22;21755;43.608;1.236;2024-03-07T07:54:20;8.00;99.90
34768;DHT22;21755;43.608;1.236;2024-03-07T07:56:47;8.10;1.00
34768;DHT22;21755;43.608;1.236;2024-03-07T07:59:16;8.20;1.00
34768;DHT22;21755;43.608;1.236;2024-03-07T08:01:42;8.20;99.90
34768;DHT22;21755;43.608;1.236;2024-03-07T08:04:08;8.30;99.90
34768;DHT22;21755;43.608;1.236;2024-03-07T08:06:35;8.40;99.90
34768;DHT22;21755;43.608;1.236;2024-03-07T08:09:01;8.40;99.90
34768;DHT22;21755;43.608;1.236;2024-03-07T08:11:27;8.50;99.90
34768;DHT22;21755;43.608;1.236;2024-03-07T08:13:53;8.50;99.90
34768;DHT22;21755;43.608;1.236;2024-03-07T08:16:20;8.60;99.90
34768;DHT22;21755;43.608;1.236;2024-03-07T08:18:45;8.60;1.00
34768;DHT22;21755;43.608;1.236;2024-03-07T08:21:11;8.70;1.00
34768;DHT22;21755;43.608;1.236;2024-03-07T08:23:37;8.80;38.30
34768;DHT22;21755;43.608;1.236;2024-03-07T08:26:03;8.80;1.00
34768;DHT22;21755;43.608;1.236;2024-03-07T08:28:31;8.80;1.00
34768;DHT22;21755;43.608;1.236;2024-03-07T08:30:57;8.90;1.00
34768;DHT22;21755;43.608;1.236;2024-03-07T08:33:24;8.90;1.00
34768;DHT22;21755;43.608;1.236;2024-03-07T08:35:51;9.00;1.00
34768;DHT22;21755;43.608;1.236;2024-03-07T08:38:18;9.10;99.90
34768;DHT22;21755;43.608;1.236;2024-03-07T08:40:44;9.30;99.90
34768;DHT22;21755;43.608;1.236;2024-03-07T08:43:10;9.50;99.90
34768;DHT22;21755;43.608;1.236;2024-03-07T08:45:36;9.70;99.90
34768;DHT22;21755;43.608;1.236;2024-03-07T08:48:03;9.90;71.20
34768;DHT22;21755;43.608;1.236;2024-03-07T08:50:35;10.10;1.00
34768;DHT22;21755;43.608;1.236;2024-03-07T08:53:03;10.30;99.90
34768;DHT22;21755;43.608;1.236;2024-03-07T08:55:32;10.40;1.00
34768;DHT22;21755;43.608;1.236;2024-03-07T08:58:01;10.50;1.00
34768;DHT22;21755;43.608;1.236;2024-03-07T09:00:27;10.60;1.00
34768;DHT22;21755;43.608;1.236;2024-03-07T09:02:55;10.70;1.00
34768;DHT22;21755;43.608;1.236;2024-03-07T09:05:24;10.60;99.90
34768;DHT22;21755;43.608;1.236;2024-03-07T09:07:52;10.60;99.90
34768;DHT22;21755;43.608;1.236;2024-03-07T09:10:19;10.50;99.90
34768;DHT22;21755;43.608;1.236;2024-03-07T09:12:46;10.50;1.00
34768;DHT22;21755;43.608;1.236;2024-03-07T09:15:15;10.50;1.00
34768;DHT22;21755;43.608;1.236;2024-03-07T09:17:43;10.50;1.00
34768;DHT22;21755;43.608;1.236;2024-03-07T09:20:10;10.60;1.00
34768;DHT22;21755;43.608;1.236;2024-03-07T09:22:43;10.60;1.00
34768;DHT22;21755;43.608;1.236;2024-03-07T09:25:10;10.60;99.90
34768;DHT22;21755;43.608;1.236;2024-03-07T09:27:38;10.50;99.90
34768;DHT22;21755;43.608;1.236;2024-03-07T09:30:07;10.40;99.90
34768;DHT22;21755;43.608;1.236;2024-03-07T09:32:39;10.30;99.90
34768;DHT22;21755;43.608;1.236;2024-03-07T09:35:06;10.20;99.50
34768;DHT22;21755;43.608;1.236;2024-03-07T09:37:33;10.20;1.00
34768;DHT22;21755;43.608;1.236;2024-03-07T09:39:59;10.30;1.00
34768;DHT22;21755;43.608;1.236;2024-03-07T09:42:26;10.40;99.90
34768;DHT22;21755;43.608;1.236;2024-03-07T09:44:54;10.50;53.50
34768;DHT22;21755;43.608;1.236;2024-03-07T09:47:22;10.50;99.90
34768;DHT22;21755;43.608;1.236;2024-03-07T09:49:48;10.60;99.90
34768;DHT22;21755;43.608;1.236;2024-03-07T09:52:14;10.60;31.60
34768;DHT22;21755;43.608;1.236;2024-03-07T09:54:42;10.80;53.00
34768;DHT22;21755;43.608;1.236;2024-03-07T09:57:09;10.90;1.00
34768;DHT22;21755;43.608;1.236;2024-03-07T09:59:36;11.00;99.90
34768;DHT22;21755;43.608;1.236;2024-03-07T10:02:06;11.10;99.90
34768;DHT22;21755;43.608;1.236;2024-03-07T10:04:43;11.20;99.90
34768;DHT22;21755;43.608;1.236;2024-03-07T10:07:17;11.30;1.00
34768;DHT22;21755;43.608;1.236;2024-03-07T10:09:44;11.30;1.00
34768;DHT22;21755;43.608;1.236;2024-03-07T10:12:10;11.30;1.00
34768;DHT22;21755;43.608;1.236;2024-03-07T10:14:50;11.20;43.60
34768;DHT22;21755;43.608;1.236;2024-03-07T10:17:19;11.00;99.90
34768;DHT22;21755;43.608;1.236;2024-03-07T10:19:47;10.90;99.90
34768;DHT22;21755;43.608;1.236;2024-03-07T10:22:15;10.90;99.90
34768;DHT22;21755;43.608;1.236;2024-03-07T10:24:58;10.90;99.90
34768;DHT22;21755;43.608;1.236;2024-03-07T10:27:25;11.00;99.90
34768;DHT22;21755;43.608;1.236;2024-03-07T10:29:54;11.10;99.90
34768;DHT22;21755;43.608;1.236;2024-03-07T10:32:22;11.10;99.90
34768;DHT22;21755;43.608;1.236;2024-03-07T10:34:51;11.20;99.90
34768;DHT22;21755;43.608;1.236;2024-03-07T10:37:17;11.20;99.90
34768;DHT22;21755;43.608;1.236;2024-03-07T10:39:45;11.20;99.90
34768;DHT22;21755;43.608;1.236;2024-03-07T10:42:15;11.30;99.90
34768;DHT22;21755;43.608;1.236;2024-03-07T10:44:48;11.30;99.90
34768;DHT22;21755;43.608;1.236;2024-03-07T10:47:18;11.30;99.90
34768;DHT22;21755;43.608;1.236;2024-03-07T10:50:13;11.40;99.90
34768;DHT22;21755;43.608;1.236;2024-03-07T10:52:58;11.50;99.90
34768;DHT22;21755;43.608;1.236;2024-03-07T10:55:34;11.50;14.50
34768;DHT22;21755;43.608;1.236;2024-03-07T10:58:09;11.60;24.70
34768;DHT22;21755;43.608;1.236;2024-03-07T11:00:38;11.60;97.80
34768;DHT22;21755;43.608;1.236;2024-03-07T11:03:11;11.60;94.10
34768;DHT22;21755;43.608;1.236;2024-03-07T11:05:37;11.60;99.90
34768;DHT22;21755;43.608;1.236;2024-03-07T11:08:05;11.50;99.90
34768;DHT22;21755;43.608;1.236;2024-03-07T11:10:38;11.50;99.90
34768;DHT22;21755;43.608;1.236;2024-03-07T11:13:05;11.60;99.90
34768;DHT22;21755;43.608;1.236;2024-03-07T11:15:33;11.50;99.90
34768;DHT22;21755;43.608;1.236;2024-03-07T11:18:00;11.40;99.90
34768;DHT22;21755;43.608;1.236;2024-03-07T11:20:29;11.40;99.90
34768;DHT22;21755;43.608;1.236;2024-03-07T11:22:59;11.50;99.90
34768;DHT22;21755;43.608;1.236;2024-03-07T11:25:27;11.60;99.90
34768;DHT22;21755;43.608;1.236;2024-03-07T11:27:59;11.60;99.90
34768;DHT22;21755;43.608;1.236;2024-03-07T11:30:25;11.50;99.90
34768;DHT22;21755;43.608;1.236;2024-03-07T11:32:54;11.60;99.90
34768;DHT22;21755;43.608;1.236;2024-03-07T11:35:30;11.70;99.90
34768;DHT22;21755;43.608;1.236;2024-03-07T11:37:59;11.90;1.00
34768;DHT22;21755;43.608;1.236;2024-03-07T11:42:52;12.00;99.90
34768;DHT22;21755;43.608;1.236;2024-03-07T11:45:20;12.00;99.90
34768;DHT22;21755;43.608;1.236;2024-03-07T11:47:57;12.00;1.00
34768;DHT22;21755;43.608;1.236;2024-03-07T11:50:26;12.10;99.90
34768;DHT22;21755;43.608;1.236;2024-03-07T11:52:56;12.10;99.90
34768;DHT22;21755;43.608;1.236;2024-03-07T11:55:22;12.20;99.90
34768;DHT22;21755;43.608;1.236;2024-03-07T11:57:49;12.20;99.90
34768;DHT22;21755;43.608;1.236;2024-03-07T12:00:19;12.20;99.90
34768;DHT22;21755;43.608;1.236;2024-03-07T12:02:45;12.30;99.90
34768;DHT22;21755;43.608;1.236;2024-03-07T12:05:14;12.30;1.00
34768;DHT22;21755;43.608;1.236;2024-03-07T12:07:41;12.40;99.90
34768;DHT22;21755;43.608;1.236;2024-03-07T12:10:09;12.40;1.00
34768;DHT22;21755;43.608;1.236;2024-03-07T12:12:36;12.40;99.90
34768;DHT22;21755;43.608;1.236;2024-03-07T12:15:08;12.40;99.90
34768;DHT22;21755;43.608;1.236;2024-03-07T12:17:47;12.50;99.90
34768;DHT22;21755;43.608;1.236;2024-03-07T12:20:17;12.50;99.90
34768;DHT22;21755;43.608;1.236;2024-03-07T12:23:00;12.50;30.20
34768;DHT22;21755;43.608;1.236;2024-03-07T12:25:34;12.50;99.90
34768;DHT22;21755;43.608;1.236;2024-03-07T12:28:04;12.50;99.90
34768;DHT22;21755;43.608;1.236;2024-03-07T12:30:53;12.50;92.80
34768;DHT22;21755;43.608;1.236;2024-03-07T12:33:20;12.40;30.80
34768;DHT22;21755;43.608;1.236;2024-03-07T12:35:50;12.40;99.90
34768;DHT22;21755;43.608;1.236;2024-03-07T12:38:18;12.50;99.90
34768;DHT22;21755;43.608;1.236;2024-03-07T12:40:45;12.60;99.90
34768;DHT22;21755;43.608;1.236;2024-03-07T12:43:20;12.60;99.90
34768;DHT22;21755;43.608;1.236;2024-03-07T12:45:53;12.60;99.90
34768;DHT22;21755;43.608;1.236;2024-03-07T12:48:23;12.70;99.90
34768;DHT22;21755;43.608;1.236;2024-03-07T12:50:50;12.70;97.20
34768;DHT22;21755;43.608;1.236;2024-03-07T12:53:22;12.80;99.90
34768;DHT22;21755;43.608;1.236;2024-03-07T12:55:51;12.80;99.90
34768;DHT22;21755;43.608;1.236;2024-03-07T12:58:18;12.80;99.90
34768;DHT22;21755;43.608;1.236;2024-03-07T13:00:45;12.80;50.30
34768;DHT22;21755;43.608;1.236;2024-03-07T13:03:12;12.80;99.90
34768;DHT22;21755;43.608;1.236;2024-03-07T13:05:41;12.80;99.90
34768;DHT22;21755;43.608;1.236;2024-03-07T13:08:09;12.90;99.90
34768;DHT22;21755;43.608;1.236;2024-03-07T13:10:44;12.90;99.90
34768;DHT22;21755;43.608;1.236;2024-03-07T13:13:10;12.90;99.90
34768;DHT22;21755;43.608;1.236;2024-03-07T13:15:40;12.90;1.00
34768;DHT22;21755;43.608;1.236;2024-03-07T13:18:08;12.90;99.90
34768;DHT22;21755;43.608;1.236;2024-03-07T13:20:37;12.80;99.90
34768;DHT22;21755;43.608;1.236;2024-03-07T13:23:03;12.80;99.90
34768;DHT22;21755;43.608;1.236;2024-03-07T13:25:30;12.90;36.50
34768;DHT22;21755;43.608;1.236;2024-03-07T13:30:43;13.10;1.00
34768;DHT22;21755;43.608;1.236;2024-03-07T13:33:15;13.10;1.00
34768;DHT22;21755;43.608;1.236;2024-03-07T13:35:41;13.20;99.90
34768;DHT22;21755;43.608;1.236;2024-03-07T13:38:07;13.20;1.00
34768;DHT22;21755;43.608;1.236;2024-03-07T13:40:34;13.20;99.90
34768;DHT22;21755;43.608;1.236;2024-03-07T13:43:07;13.20;97.00
34768;DHT22;21755;43.608;1.236;2024-03-07T13:45:35;13.20;1.00
34768;DHT22;21755;43.608;1.236;2024-03-07T13:48:06;13.20;99.90
34768;DHT22;21755;43.608;1.236;2024-03-07T13:50:34;13.20;24.80
34768;DHT22;21755;43.608;1.236;2024-03-07T13:53:00;13.20;99.90
34768;DHT22;21755;43.608;1.236;2024-03-07T14:08:11;13.20;1.00
34768;DHT22;21755;43.608;1.236;2024-03-07T14:10:35;13.30;99.90
34768;DHT22;21755;43.608;1.236;2024-03-07T14:29:00;13.50;1.00
34768;DHT22;21755;43.608;1.236;2024-03-07T14:31:29;13.60;1.00
34768;DHT22;21755;43.608;1.236;2024-03-07T14:36:45;13.60;1.00
34768;DHT22;21755;43.608;1.236;2024-03-07T14:39:11;13.60;95.80
34768;DHT22;21755;43.608;1.236;2024-03-07T14:44:14;13.60;99.90
34768;DHT22;21755;43.608;1.236;2024-03-07T14:46:42;13.50;99.90
34768;DHT22;21755;43.608;1.236;2024-03-07T14:49:12;13.50;99.90
34768;DHT22;21755;43.608;1.236;2024-03-07T14:51:39;13.50;99.90
34768;DHT22;21755;43.608;1.236;2024-03-07T14:54:05;13.60;1.00
34768;DHT22;21755;43.608;1.236;2024-03-07T14:56:34;13.60;1.00
34768;DHT22;21755;43.608;1.236;2024-03-07T14:59:00;13.60;99.90
34768;DHT22;21755;43.608;1.236;2024-03-07T15:01:32;13.60;99.90
34768;DHT22;21755;43.608;1.236;2024-03-07T15:04:02;13.50;1.00
34768;DHT22;21755;43.608;1.236;2024-03-07T15:06:35;13.50;1.00
34768;DHT22;21755;43.608;1.236;2024-03-07T15:09:01;13.50;1.00
34768;DHT22;21755;43.608;1.236;2024-03-07T15:11:29;13.50;99.90
34768;DHT22;21755;43.608;1.236;2024-03-07T15:13:58;13.50;2.80
34768;DHT22;21755;43.608;1.236;2024-03-07T15:16:25;13.50;99.90
34768;DHT22;21755;43.608;1.236;2024-03-07T15:18:56;13.50;56.60
34768;DHT22;21755;43.608;1.236;2024-03-07T15:21:22;13.40;72.30
34768;DHT22;21755;43.608;1.236;2024-03-07T15:23:47;13.40;99.90
34768;DHT22;21755;43.608;1.236;2024-03-07T15:26:13;13.40;99.90
34768;DHT22;21755;43.608;1.236;2024-03-07T15:28:43;13.30;99.90
34768;DHT22;21755;43.608;1.236;2024-03-07T15:31:09;13.30;99.90
34768;DHT22;21755;43.608;1.236;2024-03-07T15:33:40;13.30;99.90
34768;DHT22;21755;43.608;1.236;2024-03-07T15:36:08;13.20;99.90
34768;DHT22;21755;43.608;1.236;2024-03-07T15:38:34;13.10;99.90
34768;DHT22;21755;43.608;1.236;2024-03-07T15:41:04;13.10;99.90
34768;DHT22;21755;43.608;1.236;2024-03-07T15:43:30;13.10;99.90
34768;DHT22;21755;43.608;1.236;2024-03-07T15:45:56;13.00;1.00
34768;DHT22;21755;43.608;1.236;2024-03-07T15:48:23;13.00;1.00
34768;DHT22;21755;43.608;1.236;2024-03-07T15:50:52;13.00;1.00
34768;DHT22;21755;43.608;1.236;2024-03-07T15:53:18;13.00;1.00
34768;DHT22;21755;43.608;1.236;2024-03-07T15:55:45;13.00;1.00
34768;DHT22;21755;43.608;1.236;2024-03-07T15:58:11;13.00;12.10
34768;DHT22;21755;43.608;1.236;2024-03-07T16:00:38;13.00;12.30
34768;DHT22;21755;43.608;1.236;2024-03-07T16:03:06;13.00;99.90
34768;DHT22;21755;43.608;1.236;2024-03-07T16:05:42;12.90;81.10
34768;DHT22;21755;43.608;1.236;2024-03-07T16:08:10;12.80;99.90
34768;DHT22;21755;43.608;1.236;2024-03-07T16:10:40;12.70;99.90
34768;DHT22;21755;43.608;1.236;2024-03-07T16:13:10;12.70;99.90
34768;DHT22;21755;43.608;1.236;2024-03-07T16:15:40;12.70;99.90
34768;DHT22;21755;43.608;1.236;2024-03-07T16:18:06;12.60;99.90
34768;DHT22;21755;43.608;1.236;2024-03-07T16:20:33;12.50;99.90
34768;DHT22;21755;43.608;1.236;2024-03-07T16:23:00;12.50;99.90
34768;DHT22;21755;43.608;1.236;2024-03-07T16:25:26;12.40;99.90
34768;DHT22;21755;43.608;1.236;2024-03-07T16:27:53;12.30;99.90
34768;DHT22;21755;43.608;1.236;2024-03-07T16:30:21;12.20;99.90
34768;DHT22;21755;43.608;1.236;2024-03-07T16:32:48;12.20;99.90